createdAt,value
2023-09-17T00:01:04.718Z,999
2023-09-17T00:04:04.761Z,999
2023-09-17T00:06:05.129Z,999.1
2023-09-17T00:09:04.819Z,999.1
2023-09-17T00:11:04.712Z,999.2
2023-09-17T00:14:05.286Z,999.1
2023-09-17T00:17:04.916Z,999.2
2023-09-17T00:20:04.902Z,999.2
2023-09-17T00:22:05.328Z,999.2
2023-09-17T00:25:04.979Z,999.2
2023-09-17T00:27:04.801Z,999.3
2023-09-17T00:30:05.104Z,999.2
2023-09-17T00:32:05.610Z,999.2
2023-09-17T00:35:04.723Z,999.2
2023-09-17T00:38:05.268Z,999.2
2023-09-17T00:41:04.687Z,999.1
2023-09-17T00:43:04.786Z,999.2
2023-09-17T00:45:05.422Z,999.2
2023-09-17T00:48:04.961Z,999.2
2023-09-17T00:51:04.697Z,999.2
2023-09-17T00:53:05.361Z,999.1
2023-09-17T00:56:05.549Z,999.1
2023-09-17T00:59:04.884Z,999.1
2023-09-17T01:02:04.714Z,999.1
2023-09-17T01:04:04.841Z,999.1
2023-09-17T01:07:04.731Z,999.1
2023-09-17T01:09:04.742Z,999.1
2023-09-17T01:12:04.734Z,999
2023-09-17T01:14:04.899Z,999.1
2023-09-17T01:17:04.758Z,999.1
2023-09-17T01:19:05.371Z,999.1
2023-09-17T01:22:04.694Z,999.1
2023-09-17T01:24:05.532Z,999
2023-09-17T01:27:04.733Z,999
2023-09-17T01:30:04.700Z,999
2023-09-17T01:32:05.635Z,999
2023-09-17T01:35:04.725Z,999
2023-09-17T01:38:05.679Z,999
2023-09-17T01:41:04.694Z,999
2023-09-17T01:43:04.725Z,999
2023-09-17T01:45:04.745Z,999
2023-09-17T01:47:05.511Z,999.1
2023-09-17T01:50:05.303Z,999.1
2023-09-17T01:53:04.735Z,999.1
2023-09-17T01:56:04.733Z,999.1
2023-09-17T01:59:05.654Z,999.1
2023-09-17T02:02:05.467Z,999.2
2023-09-17T02:05:04.769Z,999.1
2023-09-17T02:07:04.730Z,999.2
2023-09-17T02:09:04.774Z,999.2
2023-09-17T02:11:05.383Z,999.2
2023-09-17T02:14:04.796Z,999.2
2023-09-17T02:17:04.706Z,999.2
2023-09-17T02:19:04.754Z,999.2
2023-09-17T02:21:05.055Z,999.2
2023-09-17T02:24:04.893Z,999.2
2023-09-17T02:27:05.253Z,999.1
2023-09-17T02:30:05.605Z,999.1
2023-09-17T02:33:04.935Z,999.2
2023-09-17T02:36:05.188Z,999.2
2023-09-17T02:39:04.766Z,999.2
2023-09-17T02:41:05.302Z,999.2
2023-09-17T02:44:05.019Z,999.2
2023-09-17T02:48:04.761Z,999.3
2023-09-17T02:50:04.911Z,999.3
2023-09-17T02:53:04.747Z,999.3
2023-09-17T02:55:05.397Z,999.3
2023-09-17T02:58:04.729Z,999.3
2023-09-17T03:00:05.268Z,999.2
2023-09-17T03:03:04.753Z,999.3
2023-09-17T03:06:03.824Z,999.3
2023-09-17T03:08:05.178Z,999.2
2023-09-17T03:11:04.747Z,999.2
2023-09-17T03:13:05.609Z,999.2
2023-09-17T03:16:04.852Z,999.1
2023-09-17T03:19:04.799Z,999.1
2023-09-17T03:22:04.773Z,999.1
2023-09-17T03:25:20.779Z,999.1
2023-09-17T03:28:04.728Z,999.1
2023-09-17T03:30:04.755Z,999.1
2023-09-17T03:32:05.628Z,999
2023-09-17T03:35:04.722Z,999
2023-09-17T03:37:04.781Z,999
2023-09-17T03:40:05.014Z,999
2023-09-17T03:43:04.753Z,999
2023-09-17T03:45:04.780Z,999.1
2023-09-17T03:48:04.799Z,999.1
2023-09-17T03:51:04.764Z,999.1
2023-09-17T03:54:04.759Z,999.1
2023-09-17T03:57:04.767Z,999.1
2023-09-17T03:59:04.783Z,999.1
2023-09-17T04:01:05.132Z,999.1
2023-09-17T04:04:04.779Z,999.1
2023-09-17T04:07:04.845Z,999.1
2023-09-17T04:10:04.752Z,999.1
2023-09-17T04:12:04.955Z,999.1
2023-09-17T04:14:05.659Z,999.1
2023-09-17T04:17:04.770Z,999
2023-09-17T04:19:05.383Z,999
2023-09-17T04:22:04.756Z,999
2023-09-17T04:24:04.765Z,999
2023-09-17T04:26:05.490Z,999
2023-09-17T04:28:05.555Z,999.1
2023-09-17T04:31:05.473Z,999.1
2023-09-17T04:36:12.038Z,999.2
2023-09-17T04:39:04.754Z,999.3
2023-09-17T04:42:04.772Z,999.3
2023-09-17T04:44:04.874Z,999.3
2023-09-17T04:47:04.789Z,999.4
2023-09-17T04:50:04.741Z,999.4
2023-09-17T04:52:04.795Z,999.4
2023-09-17T04:55:04.777Z,999.4
2023-09-17T04:58:04.762Z,999.4
2023-09-17T05:00:04.754Z,999.4
2023-09-17T05:02:05.493Z,999.4
2023-09-17T05:05:05.338Z,999.4
2023-09-17T05:08:05.077Z,999.5
2023-09-17T05:11:05.627Z,999.5
2023-09-17T05:14:04.852Z,999.6
2023-09-17T05:17:05.455Z,999.6
2023-09-17T05:20:05.668Z,999.5
2023-09-17T05:23:05.648Z,999.6
2023-09-17T05:26:04.828Z,999.6
2023-09-17T05:28:04.844Z,999.6
2023-09-17T05:30:04.923Z,999.6
2023-09-17T05:32:05.594Z,999.7
2023-09-17T05:35:05.316Z,999.7
2023-09-17T05:38:04.826Z,999.7
2023-09-17T05:40:04.895Z,999.7
2023-09-17T05:43:05.261Z,999.8
2023-09-17T05:46:05.047Z,999.8
2023-09-17T05:48:05.279Z,999.8
2023-09-17T05:51:04.809Z,999.8
2023-09-17T05:54:05.171Z,999.8
2023-09-17T05:57:04.758Z,999.8
2023-09-17T05:59:04.787Z,999.8
2023-09-17T06:02:04.791Z,999.9
2023-09-17T06:04:04.849Z,999.9
2023-09-17T06:07:04.797Z,999.9
2023-09-17T06:10:04.870Z,999.9
2023-09-17T06:13:04.766Z,999.9
2023-09-17T06:15:04.821Z,999.9
2023-09-17T06:18:04.841Z,999.9
2023-09-17T06:20:04.924Z,999.9
2023-09-17T06:22:05.557Z,999.9
2023-09-17T06:25:05.535Z,999.9
2023-09-17T06:28:04.852Z,999.9
2023-09-17T06:30:04.956Z,999.9
2023-09-17T06:32:05.291Z,999.9
2023-09-17T06:35:04.823Z,999.9
2023-09-17T06:37:04.800Z,999.9
2023-09-17T06:39:05.558Z,999.9
2023-09-17T06:42:04.948Z,999.9
2023-09-17T06:44:05.281Z,999.9
2023-09-17T06:46:05.735Z,999.8
2023-09-17T06:49:04.819Z,999.9
2023-09-17T06:51:05.632Z,999.9
2023-09-17T06:54:04.857Z,999.9
2023-09-17T06:57:04.804Z,999.9
2023-09-17T07:00:05.574Z,999.9
2023-09-17T07:03:04.847Z,999.9
2023-09-17T07:05:05.245Z,999.9
2023-09-17T07:08:05.158Z,999.9
2023-09-17T07:10:05.730Z,1000
2023-09-17T07:13:04.780Z,1000
2023-09-17T07:15:07.840Z,1000
2023-09-17T07:17:05.544Z,1000
2023-09-17T07:20:04.825Z,1000
2023-09-17T07:22:04.793Z,1000
2023-09-17T07:24:05.736Z,1000
2023-09-17T07:27:04.826Z,1000
2023-09-17T07:30:05.207Z,1000
2023-09-17T07:32:05.342Z,1000
2023-09-17T07:34:05.433Z,1000
2023-09-17T07:37:04.818Z,1000
2023-09-17T07:39:04.817Z,1000
2023-09-17T07:42:04.859Z,1000.1
2023-09-17T07:44:05.528Z,1000
2023-09-17T07:47:05.362Z,1000.1
2023-09-17T07:50:05.487Z,1000.1
2023-09-17T07:53:04.849Z,1000.1
2023-09-17T07:56:04.963Z,1000.1
2023-09-17T07:59:04.990Z,1000.1
2023-09-17T08:01:05.219Z,1000.1
2023-09-17T08:04:04.864Z,1000.1
2023-09-17T08:06:04.819Z,1000.1
2023-09-17T08:08:05.435Z,1000.2
2023-09-17T08:11:05.135Z,1000.2
2023-09-17T08:14:05.497Z,1000.2
2023-09-17T08:17:05.044Z,1000.2
2023-09-17T08:20:04.837Z,1000.2
2023-09-17T08:22:04.833Z,1000.1
2023-09-17T08:25:04.841Z,1000.2
2023-09-17T08:27:05.235Z,1000.2
2023-09-17T08:30:04.889Z,1000.3
2023-09-17T08:32:05.416Z,1000.2
2023-09-17T08:35:04.868Z,1000.2
2023-09-17T08:37:04.846Z,1000.2
2023-09-17T08:40:04.854Z,1000.2
2023-09-17T08:42:06.637Z,1000.2
2023-09-17T08:45:05.086Z,1000.1
2023-09-17T08:48:05.539Z,1000.2
2023-09-17T08:51:05.286Z,1000.2
2023-09-17T08:54:04.893Z,1000.1
2023-09-17T08:56:05.276Z,1000.1
2023-09-17T08:58:05.578Z,1000.1
2023-09-17T09:01:04.840Z,1000
2023-09-17T09:04:04.908Z,1000
2023-09-17T09:06:04.843Z,1000
2023-09-17T09:08:05.299Z,1000
2023-09-17T09:11:05.328Z,1000
2023-09-17T09:14:05.456Z,1000.1
2023-09-17T09:17:05.662Z,1000.1
2023-09-17T09:20:05.116Z,1000.1
2023-09-17T09:23:04.909Z,1000.1
2023-09-17T09:25:04.874Z,1000.1
2023-09-17T09:28:06.637Z,1000.1
2023-09-17T09:30:06.961Z,1000.1
2023-09-17T09:33:06.692Z,1000.1
2023-09-17T09:35:11.634Z,1000.1
2023-09-17T09:38:07.532Z,1000.1
2023-09-17T09:41:07.431Z,1000
2023-09-17T09:44:06.667Z,1000
2023-09-17T09:49:06.945Z,1000
2023-09-17T09:52:06.657Z,1000
2023-09-17T09:55:07.186Z,1000.1
2023-09-17T09:58:07.065Z,1000
2023-09-17T10:01:06.656Z,1000
2023-09-17T10:03:07.172Z,1000
2023-09-17T10:07:06.859Z,999.9
2023-09-17T10:09:07.141Z,999.9
2023-09-17T10:12:07.032Z,999.9
2023-09-17T10:15:06.704Z,999.9
2023-09-17T10:18:06.772Z,999.8
2023-09-17T10:21:06.898Z,999.8
2023-09-17T10:23:07.253Z,999.8
2023-09-17T10:27:05.753Z,999.7
2023-09-17T10:29:06.646Z,999.7
2023-09-17T10:31:07.436Z,999.7
2023-09-17T10:34:07.006Z,999.6
2023-09-17T10:36:06.781Z,999.6
2023-09-17T10:39:06.685Z,999.5
2023-09-17T10:41:08.652Z,999.5
2023-09-17T10:44:06.935Z,999.5
2023-09-17T10:47:07.366Z,999.5
2023-09-17T10:49:07.618Z,999.5
2023-09-17T10:52:07.594Z,999.5
2023-09-17T10:55:06.729Z,999.5
2023-09-17T10:58:07.657Z,999.5
2023-09-17T11:01:06.640Z,999.5
2023-09-17T11:03:06.775Z,999.5
2023-09-17T11:06:07.603Z,999.4
2023-09-17T11:09:07.266Z,999.4
2023-09-17T11:12:06.672Z,999.4
2023-09-17T11:14:07.011Z,999.4
2023-09-17T11:16:07.333Z,999.4
2023-09-17T11:19:07.302Z,999.4
2023-09-17T11:22:06.677Z,999.4
2023-09-17T11:24:08.422Z,999.4
2023-09-17T11:27:06.673Z,999.4
2023-09-17T11:30:07.266Z,999.3
2023-09-17T11:33:07.343Z,999.3
2023-09-17T11:36:07.434Z,999.4
2023-09-17T11:39:06.696Z,999.4
2023-09-17T11:41:07.313Z,999.4
2023-09-17T11:44:07.236Z,999.3
2023-09-17T11:46:07.311Z,999.3
2023-09-17T11:49:07.120Z,999.2
2023-09-17T11:52:06.765Z,999.3
2023-09-17T11:55:07.303Z,999.3
2023-09-17T11:58:06.689Z,999.3
2023-09-17T12:01:06.740Z,999.2
2023-09-17T12:04:06.718Z,999.3
2023-09-17T12:06:07.306Z,999.2
2023-09-17T12:09:06.730Z,999.2
2023-09-17T12:12:06.660Z,999.2
2023-09-17T12:14:07.534Z,999.2
2023-09-17T12:17:06.800Z,999.2
2023-09-17T12:19:17.500Z,999.2
2023-09-17T12:22:06.737Z,999.1
2023-09-17T12:24:07.692Z,999.1
2023-09-17T12:27:07.683Z,999.1
2023-09-17T12:30:06.709Z,999.1
2023-09-17T12:32:06.984Z,999
2023-09-17T12:34:06.745Z,999.1
2023-09-17T12:37:06.710Z,999
2023-09-17T12:40:06.987Z,999
2023-09-17T12:43:06.699Z,999
2023-09-17T12:45:06.708Z,998.9
2023-09-17T12:47:06.721Z,998.9
2023-09-17T12:50:07.064Z,998.8
2023-09-17T12:53:06.771Z,998.8
2023-09-17T12:55:07.032Z,998.8
2023-09-17T12:58:06.728Z,998.8
2023-09-17T13:00:07.158Z,998.8
2023-09-17T13:03:07.713Z,998.8
2023-09-17T13:06:07.364Z,998.8
2023-09-17T13:09:07.237Z,998.8
2023-09-17T13:12:06.722Z,998.8
2023-09-17T13:15:06.763Z,998.7
2023-09-17T13:17:07.247Z,998.7
2023-09-17T13:20:06.728Z,998.7
2023-09-17T13:22:07.053Z,998.7
2023-09-17T13:25:07.113Z,998.6
2023-09-17T13:27:07.113Z,998.6
2023-09-17T13:30:06.794Z,998.5
2023-09-17T13:33:06.758Z,998.5
2023-09-17T13:36:06.734Z,998.4
2023-09-17T13:38:07.350Z,998.4
2023-09-17T13:41:06.753Z,998.3
2023-09-17T13:43:07.508Z,998.2
2023-09-17T13:46:06.757Z,998.2
2023-09-17T13:48:07.356Z,998.2
2023-09-17T13:51:06.972Z,998.2
2023-09-17T13:54:06.948Z,998.1
2023-09-17T13:56:07.557Z,998
2023-09-17T13:58:07.652Z,998
2023-09-17T14:01:07.589Z,998
2023-09-17T14:04:07.051Z,997.9
2023-09-17T14:06:06.750Z,997.9
2023-09-17T14:08:06.783Z,997.9
2023-09-17T14:10:06.895Z,997.9
2023-09-17T14:13:06.945Z,997.8
2023-09-17T14:15:07.461Z,997.8
2023-09-17T14:18:07.208Z,997.7
2023-09-17T14:21:07.629Z,997.7
2023-09-17T14:24:06.754Z,997.7
2023-09-17T14:26:07.053Z,997.7
2023-09-17T14:29:06.781Z,997.7
2023-09-17T14:31:06.771Z,997.7
2023-09-17T14:34:06.768Z,997.6
2023-09-17T14:36:06.750Z,997.6
2023-09-17T14:38:07.339Z,997.6
2023-09-17T14:41:07.267Z,997.6
2023-09-17T14:44:06.879Z,997.5
2023-09-17T14:47:07.034Z,997.5
2023-09-17T14:50:07.521Z,997.5
2023-09-17T14:53:06.806Z,997.5
2023-09-17T14:55:06.777Z,997.5
2023-09-17T14:57:07.142Z,997.5
2023-09-17T14:59:07.288Z,997.5
2023-09-17T15:02:06.839Z,997.5
2023-09-17T15:04:06.876Z,997.4
2023-09-17T15:06:07.261Z,997.4
2023-09-17T15:09:06.843Z,997.4
2023-09-17T15:12:07.241Z,997.4
2023-09-17T15:15:06.765Z,997.4
2023-09-17T15:17:06.893Z,997.4
2023-09-17T15:19:07.425Z,997.3
2023-09-17T15:22:06.757Z,997.4
2023-09-17T15:24:06.791Z,997.3
2023-09-17T15:26:07.452Z,997.3
2023-09-17T15:29:06.800Z,997.3
2023-09-17T15:32:06.912Z,997.4
2023-09-17T15:35:06.919Z,997.4
2023-09-17T15:37:06.797Z,997.4
2023-09-17T15:39:06.885Z,997.3
2023-09-17T15:42:06.996Z,997.3
2023-09-17T15:44:07.075Z,997.3
2023-09-17T15:47:06.978Z,997.2
2023-09-17T15:49:07.595Z,997.2
2023-09-17T15:52:06.861Z,997.1
2023-09-17T15:55:06.946Z,997.2
2023-09-17T15:57:07.199Z,997.1
2023-09-17T15:59:07.259Z,997.1
2023-09-17T16:01:07.523Z,997.1
2023-09-17T16:04:06.864Z,997.1
2023-09-17T16:06:07.315Z,997.1
2023-09-17T16:09:07.670Z,997.2
2023-09-17T16:12:06.783Z,997.2
2023-09-17T16:15:06.856Z,997.2
2023-09-17T16:18:06.816Z,997.1
2023-09-17T16:20:07.066Z,997.1
2023-09-17T16:23:07.000Z,997.1
2023-09-17T16:26:06.834Z,997.1
2023-09-17T16:28:07.247Z,997.1
2023-09-17T16:30:07.716Z,997
2023-09-17T16:33:07.064Z,997.1
2023-09-17T16:35:07.285Z,997
2023-09-17T16:37:07.649Z,997
2023-09-17T16:40:06.817Z,997
2023-09-17T16:42:07.410Z,996.9
2023-09-17T16:45:07.203Z,996.8
2023-09-17T16:47:07.524Z,996.9
2023-09-17T16:50:06.889Z,996.8
2023-09-17T16:53:07.361Z,996.8
2023-09-17T16:56:07.197Z,996.8
2023-09-17T16:59:07.409Z,996.8
2023-09-17T17:02:06.810Z,996.8
2023-09-17T17:04:06.883Z,996.7
2023-09-17T17:06:07.048Z,996.8
2023-09-17T17:09:06.866Z,996.7
2023-09-17T17:11:06.948Z,996.8
2023-09-17T17:14:06.802Z,996.8
2023-09-17T17:16:06.877Z,996.7
2023-09-17T17:18:07.592Z,996.7
2023-09-17T17:21:07.566Z,996.7
2023-09-17T17:24:06.846Z,996.7
2023-09-17T17:27:07.271Z,996.6
2023-09-17T17:30:07.222Z,996.7
2023-09-17T17:33:06.932Z,996.7
2023-09-17T17:35:07.125Z,996.7
2023-09-17T17:38:05.241Z,996.8
2023-09-17T17:40:06.848Z,996.8
2023-09-17T17:42:07.726Z,996.7
2023-09-17T17:45:07.087Z,996.7
2023-09-17T17:47:07.423Z,996.7
2023-09-17T17:50:06.929Z,996.8
2023-09-17T17:53:07.002Z,996.8
2023-09-17T17:56:07.436Z,996.8
2023-09-17T17:59:07.580Z,996.7
2023-09-17T18:02:07.058Z,996.7
2023-09-17T18:04:07.550Z,996.7
2023-09-17T18:07:07.776Z,996.7
2023-09-17T18:10:07.096Z,996.6
2023-09-17T18:12:07.306Z,996.7
2023-09-17T18:15:06.849Z,996.7
2023-09-17T18:17:07.117Z,996.6
2023-09-17T18:20:07.422Z,996.5
2023-09-17T18:23:07.130Z,996.5
2023-09-17T18:26:06.845Z,996.5
2023-09-17T18:28:06.850Z,996.5
2023-09-17T18:30:06.864Z,996.5
2023-09-17T18:33:07.233Z,996.6
2023-09-17T18:36:06.836Z,996.6
2023-09-17T18:39:06.841Z,996.6
2023-09-17T18:41:07.822Z,996.5
2023-09-17T18:44:06.702Z,996.5
2023-09-17T18:46:06.872Z,996.4
2023-09-17T18:49:06.862Z,996.5
2023-09-17T18:51:07.042Z,996.5
2023-09-17T18:53:07.572Z,996.5
2023-09-17T18:56:06.863Z,996.4
2023-09-17T18:58:06.896Z,996.5
2023-09-17T19:01:06.955Z,996.5
2023-09-17T19:03:07.125Z,996.5
2023-09-17T19:06:06.956Z,996.5
2023-09-17T19:08:07.062Z,996.4
2023-09-17T19:10:07.399Z,996.5
2023-09-17T19:13:06.855Z,996.4
2023-09-17T19:15:06.869Z,996.5
2023-09-17T19:17:06.977Z,996.4
2023-09-17T19:19:07.797Z,996.4
2023-09-17T19:22:06.955Z,996.3
2023-09-17T19:25:06.919Z,996.3
2023-09-17T19:27:07.664Z,996.3
2023-09-17T19:30:06.858Z,996.4
2023-09-17T19:33:06.902Z,996.4
2023-09-17T19:35:06.882Z,996.4
2023-09-17T19:38:06.932Z,996.3
2023-09-17T19:41:07.442Z,996.3
2023-09-17T19:43:07.809Z,996.3
2023-09-17T19:46:07.712Z,996.3
2023-09-17T19:49:06.989Z,996.3
2023-09-17T19:52:07.529Z,996.3
2023-09-17T19:55:07.348Z,996.2
2023-09-17T19:57:07.531Z,996.2
2023-09-17T20:00:07.251Z,996.3
2023-09-17T20:02:07.445Z,996.2
2023-09-17T20:05:06.931Z,996.2
2023-09-17T20:07:07.638Z,996.2
2023-09-17T20:10:06.855Z,996.2
2023-09-17T20:12:06.938Z,996.1
2023-09-17T20:15:06.910Z,996.1
2023-09-17T20:17:06.951Z,996.1
2023-09-17T20:20:06.943Z,996
2023-09-17T20:22:07.687Z,996
2023-09-17T20:25:07.077Z,996.1
2023-09-17T20:28:06.935Z,996.1
2023-09-17T20:30:07.844Z,996.2
2023-09-17T20:33:07.073Z,996.1
2023-09-17T20:36:07.018Z,996.1
2023-09-17T20:38:07.320Z,996
2023-09-17T20:40:07.788Z,996
2023-09-17T20:43:07.089Z,996
2023-09-17T20:46:06.927Z,996
2023-09-17T20:48:12.506Z,995.9
2023-09-17T20:51:07.715Z,995.9
2023-09-17T20:54:07.275Z,995.9
2023-09-17T20:57:07.380Z,995.8
2023-09-17T21:00:06.939Z,995.8
2023-09-17T21:02:07.020Z,995.8
2023-09-17T21:04:07.039Z,995.8
2023-09-17T21:06:07.491Z,995.8
2023-09-17T21:09:06.901Z,995.7
2023-09-17T21:11:06.928Z,995.7
2023-09-17T21:14:07.409Z,995.7
2023-09-17T21:17:07.480Z,995.7
2023-09-17T21:19:07.524Z,995.7
2023-09-17T21:22:08.395Z,995.6
2023-09-17T21:25:06.975Z,995.6
2023-09-17T21:27:07.354Z,995.7
2023-09-17T21:30:07.001Z,995.7
2023-09-17T21:33:07.630Z,995.7
2023-09-17T21:36:07.339Z,995.6
2023-09-17T21:39:07.575Z,995.7
2023-09-17T21:41:07.859Z,995.6
2023-09-17T21:44:07.337Z,995.5
2023-09-17T21:47:07.287Z,995.5
2023-09-17T21:50:06.989Z,995.5
2023-09-17T21:53:07.802Z,995.5
2023-09-17T21:56:06.971Z,995.5
2023-09-17T21:58:06.923Z,995.5
2023-09-17T22:00:07.482Z,995.6
2023-09-17T22:03:07.292Z,995.6
2023-09-17T22:05:07.785Z,995.5
2023-09-17T22:08:06.939Z,995.5
2023-09-17T22:10:06.917Z,995.4
2023-09-17T22:12:07.180Z,995.3
2023-09-17T22:14:06.955Z,995.3
2023-09-17T22:17:06.946Z,995.2
2023-09-17T22:19:06.931Z,995.2
2023-09-17T22:22:07.791Z,995.2
2023-09-17T22:25:06.931Z,995.2
2023-09-17T22:27:07.474Z,995.1
2023-09-17T22:30:07.067Z,994.9
2023-09-17T22:33:07.124Z,994.8
2023-09-17T22:35:07.482Z,994.9
2023-09-17T22:37:07.609Z,995
2023-09-17T22:40:06.925Z,995
2023-09-17T22:42:06.926Z,994.9
2023-09-17T22:44:16.649Z,995
2023-09-17T22:46:06.979Z,994.9
2023-09-17T22:48:07.400Z,994.9
2023-09-17T22:51:06.940Z,994.9
2023-09-17T22:53:06.961Z,994.9
2023-09-17T22:55:06.961Z,994.9
2023-09-17T22:57:07.117Z,994.8
2023-09-17T22:59:07.621Z,994.8
2023-09-17T23:02:07.691Z,994.8
2023-09-17T23:05:06.967Z,994.8
2023-09-17T23:07:07.308Z,994.8
2023-09-17T23:10:07.678Z,994.9
2023-09-17T23:13:06.992Z,994.9
2023-09-17T23:16:07.120Z,994.8
2023-09-17T23:19:06.939Z,994.8
2023-09-17T23:21:07.037Z,994.9
2023-09-17T23:24:07.008Z,994.9
2023-09-17T23:27:06.975Z,994.9
2023-09-17T23:29:12.572Z,994.9
2023-09-17T23:32:07.035Z,994.9
2023-09-17T23:34:07.698Z,994.9
2023-09-17T23:37:07.837Z,994.8
2023-09-17T23:40:06.981Z,994.7
2023-09-17T23:42:07.028Z,994.7
2023-09-17T23:44:07.143Z,994.6
2023-09-17T23:46:07.228Z,994.5
2023-09-17T23:49:07.681Z,994.5
2023-09-17T23:52:06.968Z,994.6
2023-09-17T23:55:07.797Z,994.5
2023-09-17T23:58:06.952Z,994.4
